sensor_id;sensor_type;location;lat;lon;timestamp;pressure;altitude;pressure_sealevel;temperature;humidity
38466;BME280;24244;51.950;5.902;2022-10-16T00:00:53;100888.59;;;14.19;82.98
38466;BME280;24244;51.950;5.902;2022-10-16T00:03:20;100884.28;;;14.18;83.22
38466;BME280;24244;51.950;5.902;2022-10-16T00:05:49;100890.44;;;14.18;83.00
38466;BME280;24244;51.950;5.902;2022-10-16T00:08:17;100892.31;;;14.18;83.19
38466;BME280;24244;51.950;5.902;2022-10-16T00:10:44;100887.78;;;14.18;82.99
38466;BME280;24244;51.950;5.902;2022-10-16T00:13:10;100888.81;;;14.17;83.13
38466;BME280;24244;51.950;5.902;2022-10-16T00:15:37;100889.63;;;14.18;82.84
38466;BME280;24244;51.950;5.902;2022-10-16T00:18:05;100883.66;;;14.16;83.00
38466;BME280;24244;51.950;5.902;2022-10-16T00:20:34;100889.00;;;14.16;82.95
38466;BME280;24244;51.950;5.902;2022-10-16T00:23:01;100885.50;;;14.15;83.22
38466;BME280;24244;51.950;5.902;2022-10-16T00:25:29;100887.59;;;14.13;83.18
38466;BME280;24244;51.950;5.902;2022-10-16T00:27:59;100885.75;;;14.14;83.14
38466;BME280;24244;51.950;5.902;2022-10-16T00:30:26;100884.09;;;14.13;83.11
38466;BME280;24244;51.950;5.902;2022-10-16T00:32:54;100883.84;;;14.14;83.37
38466;BME280;24244;51.950;5.902;2022-10-16T00:35:20;100883.47;;;14.10;83.38
38466;BME280;24244;51.950;5.902;2022-10-16T00:37:47;100887.97;;;14.10;83.46
38466;BME280;24244;51.950;5.902;2022-10-16T00:40:14;100886.34;;;14.09;83.28
38466;BME280;24244;51.950;5.902;2022-10-16T00:42:42;100890.03;;;14.08;83.33
38466;BME280;24244;51.950;5.902;2022-10-16T00:45:09;100887.78;;;14.05;83.51
38466;BME280;24244;51.950;5.902;2022-10-16T00:47:39;100885.13;;;14.05;83.42
38466;BME280;24244;51.950;5.902;2022-10-16T00:50:09;100883.66;;;14.02;83.59
38466;BME280;24244;51.950;5.902;2022-10-16T00:52:39;100894.56;;;14.01;83.78
38466;BME280;24244;51.950;5.902;2022-10-16T00:55:09;100882.84;;;14.02;83.72
38466;BME280;24244;51.950;5.902;2022-10-16T00:57:36;100887.16;;;14.03;83.53
38466;BME280;24244;51.950;5.902;2022-10-16T01:00:08;100885.31;;;14.03;83.68
38466;BME280;24244;51.950;5.902;2022-10-16T01:02:35;100891.47;;;14.04;83.40
38466;BME280;24244;51.950;5.902;2022-10-16T01:05:04;100885.31;;;14.03;83.81
38466;BME280;24244;51.950;5.902;2022-10-16T01:07:39;100888.81;;;14.04;83.76
38466;BME280;24244;51.950;5.902;2022-10-16T01:10:14;100890.66;;;14.03;83.66
38466;BME280;24244;51.950;5.902;2022-10-16T01:12:46;100897.84;;;14.03;83.70
38466;BME280;24244;51.950;5.902;2022-10-16T01:15:22;100897.84;;;14.03;83.88
38466;BME280;24244;51.950;5.902;2022-10-16T01:17:55;100898.25;;;14.00;83.88
38466;BME280;24244;51.950;5.902;2022-10-16T01:20:26;100898.25;;;14.00;84.06
38466;BME280;24244;51.950;5.902;2022-10-16T01:23:01;100889.22;;;14.01;83.82
38466;BME280;24244;51.950;5.902;2022-10-16T01:25:37;100876.88;;;14.00;83.97
38466;BME280;24244;51.950;5.902;2022-10-16T01:28:10;100878.75;;;13.99;84.11
38466;BME280;24244;51.950;5.902;2022-10-16T01:30:42;100883.25;;;13.99;83.88
38466;BME280;24244;51.950;5.902;2022-10-16T01:33:16;100879.78;;;13.98;84.14
38466;BME280;24244;51.950;5.902;2022-10-16T01:35:47;100888.59;;;13.99;83.96
38466;BME280;24244;51.950;5.902;2022-10-16T01:38:19;100886.97;;;13.98;84.28
38466;BME280;24244;51.950;5.902;2022-10-16T01:40:51;100890.47;;;13.98;84.07
38466;BME280;24244;51.950;5.902;2022-10-16T01:43:23;100888.81;;;13.97;84.24
38466;BME280;24244;51.950;5.902;2022-10-16T01:45:52;100884.28;;;13.98;84.03
38466;BME280;24244;51.950;5.902;2022-10-16T01:48:21;100881.63;;;13.98;84.13
38466;BME280;24244;51.950;5.902;2022-10-16T01:50:57;100886.13;;;13.97;84.42
38466;BME280;24244;51.950;5.902;2022-10-16T01:53:26;100879.78;;;13.98;84.33
38466;BME280;24244;51.950;5.902;2022-10-16T01:55:55;100881.41;;;13.99;84.47
38466;BME280;24244;51.950;5.902;2022-10-16T01:58:27;100886.75;;;13.99;84.34
38466;BME280;24244;51.950;5.902;2022-10-16T02:00:54;100906.91;;;14.02;84.45
38466;BME280;24244;51.950;5.902;2022-10-16T02:03:21;100912.25;;;14.02;84.33
38466;BME280;24244;51.950;5.902;2022-10-16T02:05:51;100896.19;;;14.02;84.56
38466;BME280;24244;51.950;5.902;2022-10-16T02:08:20;100893.53;;;14.02;84.53
38466;BME280;24244;51.950;5.902;2022-10-16T02:10:48;100887.16;;;14.03;84.62
38466;BME280;24244;51.950;5.902;2022-10-16T02:13:19;100892.50;;;14.03;84.70
38466;BME280;24244;51.950;5.902;2022-10-16T02:15:50;100899.69;;;14.02;84.41
38466;BME280;24244;51.950;5.902;2022-10-16T02:18:17;100905.88;;;14.03;84.72
38466;BME280;24244;51.950;5.902;2022-10-16T02:20:50;100904.84;;;14.04;84.58
38466;BME280;24244;51.950;5.902;2022-10-16T02:23:20;100908.34;;;14.04;84.69
38466;BME280;24244;51.950;5.902;2022-10-16T02:25:52;100900.13;;;14.06;84.67
38466;BME280;24244;51.950;5.902;2022-10-16T02:28:24;100901.75;;;14.07;84.63
38466;BME280;24244;51.950;5.902;2022-10-16T02:30:57;100899.69;;;14.09;84.64
38466;BME280;24244;51.950;5.902;2022-10-16T02:33:26;100896.00;;;14.10;84.44
38466;BME280;24244;51.950;5.902;2022-10-16T02:35:55;100897.66;;;14.11;84.56
38466;BME280;24244;51.950;5.902;2022-10-16T02:38:23;100900.31;;;14.11;84.74
38466;BME280;24244;51.950;5.902;2022-10-16T02:40:52;100896.63;;;14.12;84.49
38466;BME280;24244;51.950;5.902;2022-10-16T02:43:19;100892.94;;;14.13;84.71
38466;BME280;24244;51.950;5.902;2022-10-16T02:45:47;100903.38;;;14.15;84.61
38466;BME280;24244;51.950;5.902;2022-10-16T02:48:17;100902.56;;;14.14;84.40
38466;BME280;24244;51.950;5.902;2022-10-16T02:50:44;100896.19;;;14.15;84.32
38466;BME280;24244;51.950;5.902;2022-10-16T02:53:11;100896.19;;;14.15;84.46
38466;BME280;24244;51.950;5.902;2022-10-16T02:55:37;100904.03;;;14.17;84.58
38466;BME280;24244;51.950;5.902;2022-10-16T02:58:04;100907.72;;;14.16;84.35
38466;BME280;24244;51.950;5.902;2022-10-16T03:00:31;100917.59;;;14.15;84.42
38466;BME280;24244;51.950;5.902;2022-10-16T03:02:57;100915.53;;;14.17;84.33
38466;BME280;24244;51.950;5.902;2022-10-16T03:05:26;100905.88;;;14.16;84.33
38466;BME280;24244;51.950;5.902;2022-10-16T03:07:53;100901.53;;;14.15;84.61
38466;BME280;24244;51.950;5.902;2022-10-16T03:10:19;100913.88;;;14.16;84.44
38466;BME280;24244;51.950;5.902;2022-10-16T03:12:46;100899.69;;;14.16;84.43
38466;BME280;24244;51.950;5.902;2022-10-16T03:15:13;100899.91;;;14.14;84.52
38466;BME280;24244;51.950;5.902;2022-10-16T03:17:40;100896.19;;;14.15;84.37
38466;BME280;24244;51.950;5.902;2022-10-16T03:20:07;100897.22;;;14.14;84.52
38466;BME280;24244;51.950;5.902;2022-10-16T03:22:35;100902.38;;;14.16;84.53
38466;BME280;24244;51.950;5.902;2022-10-16T03:25:02;100913.25;;;14.14;84.38
38466;BME280;24244;51.950;5.902;2022-10-16T03:27:29;100922.34;;;14.13;84.69
38466;BME280;24244;51.950;5.902;2022-10-16T03:29:56;100917.00;;;14.13;84.59
38466;BME280;24244;51.950;5.902;2022-10-16T03:32:24;100917.00;;;14.13;84.62
38466;BME280;24244;51.950;5.902;2022-10-16T03:34:52;100916.75;;;14.15;84.47
38466;BME280;24244;51.950;5.902;2022-10-16T03:37:20;100919.22;;;14.16;84.59
38466;BME280;24244;51.950;5.902;2022-10-16T03:39:48;100917.38;;;14.17;84.58
38466;BME280;24244;51.950;5.902;2022-10-16T03:42:15;100921.91;;;14.16;84.47
38466;BME280;24244;51.950;5.902;2022-10-16T03:44:42;100928.28;;;14.15;84.56
38466;BME280;24244;51.950;5.902;2022-10-16T03:47:09;100929.09;;;14.16;84.59
38466;BME280;24244;51.950;5.902;2022-10-16T03:49:36;100931.78;;;14.16;84.38
38466;BME280;24244;51.950;5.902;2022-10-16T03:52:02;100938.16;;;14.15;84.44
38466;BME280;24244;51.950;5.902;2022-10-16T03:54:29;100932.59;;;14.16;84.47
38466;BME280;24244;51.950;5.902;2022-10-16T03:56:57;100931.78;;;14.16;84.22
38466;BME280;24244;51.950;5.902;2022-10-16T03:59:24;100929.09;;;14.16;84.44
38466;BME280;24244;51.950;5.902;2022-10-16T04:01:51;100928.06;;;14.17;84.22
38466;BME280;24244;51.950;5.902;2022-10-16T04:04:18;100922.94;;;14.15;84.23
38466;BME280;24244;51.950;5.902;2022-10-16T04:06:45;100938.16;;;14.15;84.38
38466;BME280;24244;51.950;5.902;2022-10-16T04:09:12;100928.28;;;14.15;84.50
38466;BME280;24244;51.950;5.902;2022-10-16T04:11:38;100940.63;;;14.16;84.28
38466;BME280;24244;51.950;5.902;2022-10-16T04:14:06;100937.13;;;14.16;84.54
38466;BME280;24244;51.950;5.902;2022-10-16T04:16:33;100945.13;;;14.16;84.30
38466;BME280;24244;51.950;5.902;2022-10-16T04:19:01;100954.00;;;14.16;84.17
38466;BME280;24244;51.950;5.902;2022-10-16T04:21:28;100962.00;;;14.16;84.38
38466;BME280;24244;51.950;5.902;2022-10-16T04:23:55;100960.97;;;14.17;84.43
38466;BME280;24244;51.950;5.902;2022-10-16T04:26:22;100961.81;;;14.18;84.35
38466;BME280;24244;51.950;5.902;2022-10-16T04:28:48;100969.00;;;14.17;84.30
38466;BME280;24244;51.950;5.902;2022-10-16T04:31:17;100960.16;;;14.17;84.11
38466;BME280;24244;51.950;5.902;2022-10-16T04:33:44;100968.19;;;14.17;84.19
38466;BME280;24244;51.950;5.902;2022-10-16T04:36:10;100975.38;;;14.16;84.27
38466;BME280;24244;51.950;5.902;2022-10-16T04:38:37;100980.72;;;14.16;84.18
38466;BME280;24244;51.950;5.902;2022-10-16T04:41:06;100979.91;;;14.16;84.25
38466;BME280;24244;51.950;5.902;2022-10-16T04:43:33;100985.03;;;14.17;84.21
38466;BME280;24244;51.950;5.902;2022-10-16T04:46:00;100983.19;;;14.18;84.38
38466;BME280;24244;51.950;5.902;2022-10-16T04:48:29;100993.06;;;14.17;84.29
38466;BME280;24244;51.950;5.902;2022-10-16T04:50:56;100986.88;;;14.17;84.20
38466;BME280;24244;51.950;5.902;2022-10-16T04:53:23;100985.03;;;14.17;84.26
38466;BME280;24244;51.950;5.902;2022-10-16T04:55:51;100986.06;;;14.16;84.37
38466;BME280;24244;51.950;5.902;2022-10-16T04:58:18;100993.88;;;14.18;84.17
38466;BME280;24244;51.950;5.902;2022-10-16T05:00:45;101001.28;;;14.16;84.19
38466;BME280;24244;51.950;5.902;2022-10-16T05:03:13;101006.63;;;14.16;84.21
38466;BME280;24244;51.950;5.902;2022-10-16T05:05:43;101002.94;;;14.17;84.04
38466;BME280;24244;51.950;5.902;2022-10-16T05:08:11;101004.59;;;14.18;84.16
38466;BME280;24244;51.950;5.902;2022-10-16T05:10:38;101006.63;;;14.16;84.20
38466;BME280;24244;51.950;5.902;2022-10-16T05:13:05;101010.13;;;14.16;84.13
38466;BME280;24244;51.950;5.902;2022-10-16T05:15:33;101016.50;;;14.15;84.32
38466;BME280;24244;51.950;5.902;2022-10-16T05:18:00;101014.06;;;14.14;84.18
38466;BME280;24244;51.950;5.902;2022-10-16T05:20:26;101021.25;;;14.13;84.36
38466;BME280;24244;51.950;5.902;2022-10-16T05:22:55;101026.59;;;14.13;84.31
38466;BME280;24244;51.950;5.902;2022-10-16T05:25:21;101031.94;;;14.13;84.25
38466;BME280;24244;51.950;5.902;2022-10-16T05:27:48;101042.81;;;14.11;83.98
38466;BME280;24244;51.950;5.902;2022-10-16T05:30:16;101042.00;;;14.11;84.18
38466;BME280;24244;51.950;5.902;2022-10-16T05:32:46;101050.22;;;14.09;84.22
38466;BME280;24244;51.950;5.902;2022-10-16T05:35:13;101050.41;;;14.08;84.26
38466;BME280;24244;51.950;5.902;2022-10-16T05:37:40;101059.25;;;14.08;84.21
38466;BME280;24244;51.950;5.902;2022-10-16T05:40:14;101056.38;;;14.10;84.07
38466;BME280;24244;51.950;5.902;2022-10-16T05:42:41;101060.72;;;14.11;84.27
38466;BME280;24244;51.950;5.902;2022-10-16T05:45:10;101065.44;;;14.09;83.77
38466;BME280;24244;51.950;5.902;2022-10-16T05:47:38;101070.97;;;14.07;84.08
38466;BME280;24244;51.950;5.902;2022-10-16T05:50:04;101073.88;;;14.06;84.19
38466;BME280;24244;51.950;5.902;2022-10-16T05:52:31;101081.88;;;14.06;83.98
38466;BME280;24244;51.950;5.902;2022-10-16T05:54:58;101084.75;;;14.04;83.75
38466;BME280;24244;51.950;5.902;2022-10-16T05:57:36;101084.94;;;14.03;84.09
38466;BME280;24244;51.950;5.902;2022-10-16T06:00:07;101096.03;;;14.00;83.93
38466;BME280;24244;51.950;5.902;2022-10-16T06:02:34;101099.53;;;14.00;84.34
38466;BME280;24244;51.950;5.902;2022-10-16T06:05:01;101099.53;;;14.00;83.91
38466;BME280;24244;51.950;5.902;2022-10-16T06:07:28;101107.97;;;13.97;84.21
38466;BME280;24244;51.950;5.902;2022-10-16T06:09:55;101103.81;;;13.95;84.26
38466;BME280;24244;51.950;5.902;2022-10-16T06:12:22;101113.69;;;13.94;84.04
38466;BME280;24244;51.950;5.902;2022-10-16T06:14:50;101115.53;;;13.94;84.21
38466;BME280;24244;51.950;5.902;2022-10-16T06:17:17;101114.94;;;13.92;84.27
38466;BME280;24244;51.950;5.902;2022-10-16T06:19:44;101113.28;;;13.91;84.07
38466;BME280;24244;51.950;5.902;2022-10-16T06:22:10;101114.94;;;13.92;84.37
38466;BME280;24244;51.950;5.902;2022-10-16T06:24:37;101122.13;;;13.91;84.41
38466;BME280;24244;51.950;5.902;2022-10-16T06:27:04;101118.63;;;13.91;84.59
38466;BME280;24244;51.950;5.902;2022-10-16T06:29:31;101116.97;;;13.90;84.25
38466;BME280;24244;51.950;5.902;2022-10-16T06:31:59;101118.81;;;13.89;84.32
38466;BME280;24244;51.950;5.902;2022-10-16T06:34:26;101123.34;;;13.89;84.35
38466;BME280;24244;51.950;5.902;2022-10-16T06:36:53;101119.00;;;13.88;84.63
38466;BME280;24244;51.950;5.902;2022-10-16T06:39:22;101127.84;;;13.88;84.63
38466;BME280;24244;51.950;5.902;2022-10-16T06:41:49;101123.34;;;13.89;84.54
38466;BME280;24244;51.950;5.902;2022-10-16T06:44:16;101128.50;;;13.90;84.71
38466;BME280;24244;51.950;5.902;2022-10-16T06:46:43;101142.69;;;13.91;84.71
38466;BME280;24244;51.950;5.902;2022-10-16T06:49:11;101154.81;;;13.93;84.82
38466;BME280;24244;51.950;5.902;2022-10-16T06:51:37;101159.13;;;13.94;84.56
38466;BME280;24244;51.950;5.902;2022-10-16T06:54:09;101160.78;;;13.95;84.62
38466;BME280;24244;51.950;5.902;2022-10-16T06:56:35;101168.59;;;13.97;84.63
38466;BME280;24244;51.950;5.902;2022-10-16T06:59:03;101170.25;;;13.98;85.01
38466;BME280;24244;51.950;5.902;2022-10-16T07:01:32;101173.53;;;14.00;84.94
38466;BME280;24244;51.950;5.902;2022-10-16T07:03:59;101178.50;;;14.03;84.90
38466;BME280;24244;51.950;5.902;2022-10-16T07:06:31;101185.91;;;14.07;85.02
38466;BME280;24244;51.950;5.902;2022-10-16T07:08:58;101177.69;;;14.09;84.86
38466;BME280;24244;51.950;5.902;2022-10-16T07:11:26;101184.69;;;14.10;85.09
38466;BME280;24244;51.950;5.902;2022-10-16T07:13:53;101188.41;;;14.09;85.12
38466;BME280;24244;51.950;5.902;2022-10-16T07:16:23;101201.38;;;14.12;84.88
38466;BME280;24244;51.950;5.902;2022-10-16T07:18:50;101201.97;;;14.14;84.95
38466;BME280;24244;51.950;5.902;2022-10-16T07:21:21;101201.97;;;14.14;85.06
38466;BME280;24244;51.950;5.902;2022-10-16T07:23:51;101208.59;;;14.18;85.05
38466;BME280;24244;51.950;5.902;2022-10-16T07:26:18;101213.53;;;14.21;85.32
38466;BME280;24244;51.950;5.902;2022-10-16T07:28:45;101219.50;;;14.23;85.11
38466;BME280;24244;51.950;5.902;2022-10-16T07:31:14;101230.84;;;14.25;85.24
38466;BME280;24244;51.950;5.902;2022-10-16T07:33:42;101233.09;;;14.28;84.88
38466;BME280;24244;51.950;5.902;2022-10-16T07:36:11;101238.25;;;14.30;85.00
38466;BME280;24244;51.950;5.902;2022-10-16T07:38:42;101257.63;;;14.32;85.09
38466;BME280;24244;51.950;5.902;2022-10-16T07:41:11;101249.41;;;14.33;85.28
38466;BME280;24244;51.950;5.902;2022-10-16T07:43:39;101259.69;;;14.36;85.27
38466;BME280;24244;51.950;5.902;2022-10-16T07:46:07;101264.69;;;14.39;84.92
38466;BME280;24244;51.950;5.902;2022-10-16T07:48:34;101265.50;;;14.40;84.76
38466;BME280;24244;51.950;5.902;2022-10-16T07:51:05;101264.50;;;14.41;85.00
38466;BME280;24244;51.950;5.902;2022-10-16T07:53:32;101261.81;;;14.41;85.06
38466;BME280;24244;51.950;5.902;2022-10-16T07:56:03;101260.56;;;14.43;85.19
38466;BME280;24244;51.950;5.902;2022-10-16T07:58:31;101270.06;;;14.46;84.98
38466;BME280;24244;51.950;5.902;2022-10-16T08:00:58;101264.72;;;14.46;85.08
38466;BME280;24244;51.950;5.902;2022-10-16T08:03:25;101280.38;;;14.49;85.02
38466;BME280;24244;51.950;5.902;2022-10-16T08:05:56;101278.13;;;14.53;84.77
38466;BME280;24244;51.950;5.902;2022-10-16T08:08:23;101279.56;;;14.55;84.92
38466;BME280;24244;51.950;5.902;2022-10-16T08:10:50;101278.31;;;14.58;85.05
38466;BME280;24244;51.950;5.902;2022-10-16T08:13:18;101285.78;;;14.62;84.94
38466;BME280;24244;51.950;5.902;2022-10-16T08:15:47;101283.50;;;14.66;84.91
38466;BME280;24244;51.950;5.902;2022-10-16T08:18:14;101280.44;;;14.69;85.04
38466;BME280;24244;51.950;5.902;2022-10-16T08:20:42;101290.34;;;14.75;84.74
38466;BME280;24244;51.950;5.902;2022-10-16T08:23:09;101284.56;;;14.78;84.89
38466;BME280;24244;51.950;5.902;2022-10-16T08:25:37;101294.91;;;14.81;84.83
38466;BME280;24244;51.950;5.902;2022-10-16T08:28:05;101293.44;;;14.85;84.47
38466;BME280;24244;51.950;5.902;2022-10-16T08:30:33;101302.94;;;14.87;84.75
38466;BME280;24244;51.950;5.902;2022-10-16T08:33:02;101317.38;;;14.93;84.40
38466;BME280;24244;51.950;5.902;2022-10-16T08:35:29;101309.78;;;14.97;84.54
38466;BME280;24244;51.950;5.902;2022-10-16T08:37:55;101313.69;;;15.01;84.45
38466;BME280;24244;51.950;5.902;2022-10-16T08:40:24;101316.81;;;15.04;84.14
38466;BME280;24244;51.950;5.902;2022-10-16T08:43:01;101312.88;;;15.07;84.13
38466;BME280;24244;51.950;5.902;2022-10-16T08:45:49;101323.19;;;15.10;84.06
38466;BME280;24244;51.950;5.902;2022-10-16T08:51:23;101327.53;;;15.17;83.89
38466;BME280;24244;51.950;5.902;2022-10-16T08:53:53;101335.97;;;15.21;83.83
38466;BME280;24244;51.950;5.902;2022-10-16T08:56:25;101347.97;;;15.25;83.73
38466;BME280;24244;51.950;5.902;2022-10-16T08:58:53;101336.00;;;15.27;83.58
38466;BME280;24244;51.950;5.902;2022-10-16T09:01:34;101340.75;;;15.32;83.70
38466;BME280;24244;51.950;5.902;2022-10-16T09:07:11;101349.00;;;15.37;83.38
38466;BME280;24244;51.950;5.902;2022-10-16T09:09:49;101346.75;;;15.41;83.22
38466;BME280;24244;51.950;5.902;2022-10-16T09:12:22;101357.88;;;15.44;83.14
38466;BME280;24244;51.950;5.902;2022-10-16T09:15:11;101359.16;;;15.48;82.68
38466;BME280;24244;51.950;5.902;2022-10-16T09:17:48;101367.78;;;15.50;82.66
38466;BME280;24244;51.950;5.902;2022-10-16T09:20:35;101368.06;;;15.55;82.21
38466;BME280;24244;51.950;5.902;2022-10-16T09:23:13;101366.59;;;15.59;82.27
38466;BME280;24244;51.950;5.902;2022-10-16T09:25:43;101370.50;;;15.63;82.35
38466;BME280;24244;51.950;5.902;2022-10-16T09:28:11;101374.44;;;15.68;82.15
38466;BME280;24244;51.950;5.902;2022-10-16T09:30:38;101368.88;;;15.69;82.11
38466;BME280;24244;51.950;5.902;2022-10-16T09:33:06;101374.44;;;15.74;81.83
38466;BME280;24244;51.950;5.902;2022-10-16T09:35:37;101370.31;;;15.78;81.66
38466;BME280;24244;51.950;5.902;2022-10-16T09:38:05;101373.22;;;15.83;81.43
38466;BME280;24244;51.950;5.902;2022-10-16T09:40:36;101371.78;;;15.87;81.38
38466;BME280;24244;51.950;5.902;2022-10-16T09:43:16;101384.56;;;15.92;81.38
38466;BME280;24244;51.950;5.902;2022-10-16T09:45:54;101383.94;;;15.96;81.17
38466;BME280;24244;51.950;5.902;2022-10-16T09:48:22;101381.66;;;16.00;81.07
38466;BME280;24244;51.950;5.902;2022-10-16T09:50:55;101388.28;;;16.04;80.83
38466;BME280;24244;51.950;5.902;2022-10-16T09:53:22;101395.91;;;16.07;81.28
38466;BME280;24244;51.950;5.902;2022-10-16T09:55:53;101388.47;;;16.09;80.80
38466;BME280;24244;51.950;5.902;2022-10-16T09:58:21;101398.56;;;16.14;80.83
38466;BME280;24244;51.950;5.902;2022-10-16T10:00:51;101397.34;;;16.16;80.66
38466;BME280;24244;51.950;5.902;2022-10-16T10:03:33;101400.47;;;16.20;80.10
38466;BME280;24244;51.950;5.902;2022-10-16T10:06:07;101391.97;;;16.23;80.04
38466;BME280;24244;51.950;5.902;2022-10-16T10:08:41;101402.31;;;16.26;79.78
38466;BME280;24244;51.950;5.902;2022-10-16T10:11:09;101402.50;;;16.31;79.95
38466;BME280;24244;51.950;5.902;2022-10-16T10:13:41;101412.41;;;16.37;79.78
38466;BME280;24244;51.950;5.902;2022-10-16T10:16:08;101410.97;;;16.41;79.76
38466;BME280;24244;51.950;5.902;2022-10-16T10:18:35;101406.00;;;16.44;79.70
38466;BME280;24244;51.950;5.902;2022-10-16T10:21:02;101416.09;;;16.49;79.57
38466;BME280;24244;51.950;5.902;2022-10-16T10:23:30;101408.47;;;16.53;79.38
38466;BME280;24244;51.950;5.902;2022-10-16T10:26:04;101413.19;;;16.57;79.09
38466;BME280;24244;51.950;5.902;2022-10-16T10:28:46;101409.69;;;16.63;78.96
38466;BME280;24244;51.950;5.902;2022-10-16T10:31:21;101408.44;;;16.66;78.74
38466;BME280;24244;51.950;5.902;2022-10-16T10:33:55;101417.72;;;16.70;78.70
38466;BME280;24244;51.950;5.902;2022-10-16T10:36:34;101408.22;;;16.74;78.17
38466;BME280;24244;51.950;5.902;2022-10-16T10:39:06;101405.94;;;16.77;78.01
38466;BME280;24244;51.950;5.902;2022-10-16T10:42:04;101416.88;;;16.82;77.72
38466;BME280;24244;51.950;5.902;2022-10-16T10:44:56;101412.53;;;16.88;77.26
38466;BME280;24244;51.950;5.902;2022-10-16T10:47:35;101412.91;;;16.92;77.19
38466;BME280;24244;51.950;5.902;2022-10-16T10:50:10;101421.19;;;16.97;76.77
38466;BME280;24244;51.950;5.902;2022-10-16T10:52:49;101422.41;;;17.01;75.80
38466;BME280;24244;51.950;5.902;2022-10-16T10:55:24;101429.00;;;17.05;75.71
38466;BME280;24244;51.950;5.902;2022-10-16T10:58:20;101430.84;;;17.11;75.34
38466;BME280;24244;51.950;5.902;2022-10-16T11:00:55;101426.06;;;17.13;74.73
38466;BME280;24244;51.950;5.902;2022-10-16T11:03:39;101434.31;;;17.18;74.88
38466;BME280;24244;51.950;5.902;2022-10-16T11:06:12;101428.50;;;17.21;74.75
38466;BME280;24244;51.950;5.902;2022-10-16T11:08:46;101433.25;;;17.26;74.76
38466;BME280;24244;51.950;5.902;2022-10-16T11:11:18;101446.03;;;17.30;74.35
38466;BME280;24244;51.950;5.902;2022-10-16T11:13:53;101443.75;;;17.34;73.77
38466;BME280;24244;51.950;5.902;2022-10-16T11:16:28;101442.50;;;17.36;72.91
38466;BME280;24244;51.950;5.902;2022-10-16T11:18:59;101439.41;;;17.39;72.95
38466;BME280;24244;51.950;5.902;2022-10-16T11:21:31;101450.31;;;17.44;72.82
38466;BME280;24244;51.950;5.902;2022-10-16T11:24:06;101443.25;;;17.50;72.70
38466;BME280;24244;51.950;5.902;2022-10-16T11:26:41;101458.75;;;17.54;72.43
38466;BME280;24244;51.950;5.902;2022-10-16T11:29:13;101460.16;;;17.57;72.26
38466;BME280;24244;51.950;5.902;2022-10-16T11:31:47;101455.19;;;17.60;72.29
38466;BME280;24244;51.950;5.902;2022-10-16T11:34:22;101453.97;;;17.63;71.96
38466;BME280;24244;51.950;5.902;2022-10-16T11:36:53;101465.13;;;17.67;71.99
38466;BME280;24244;51.950;5.902;2022-10-16T11:39:25;101456.84;;;17.68;71.72
38466;BME280;24244;51.950;5.902;2022-10-16T11:41:55;101449.38;;;17.70;71.77
38466;BME280;24244;51.950;5.902;2022-10-16T11:44:43;101453.50;;;17.73;70.35
38466;BME280;24244;51.950;5.902;2022-10-16T11:47:23;101454.69;;;17.77;70.40
38466;BME280;24244;51.950;5.902;2022-10-16T11:50:19;101457.13;;;17.85;70.24
38466;BME280;24244;51.950;5.902;2022-10-16T11:52:52;101454.66;;;17.90;70.38
38466;BME280;24244;51.950;5.902;2022-10-16T11:55:22;101447.78;;;17.94;70.00
38466;BME280;24244;51.950;5.902;2022-10-16T11:57:53;101455.44;;;17.97;69.58
38466;BME280;24244;51.950;5.902;2022-10-16T12:00:23;101459.31;;;18.01;69.68
38466;BME280;24244;51.950;5.902;2022-10-16T12:02:59;101455.13;;;18.05;69.74
38466;BME280;24244;51.950;5.902;2022-10-16T12:05:37;101469.81;;;18.09;69.35
38466;BME280;24244;51.950;5.902;2022-10-16T12:08:16;101476.41;;;18.13;68.79
38466;BME280;24244;51.950;5.902;2022-10-16T12:10:49;101471.41;;;18.17;68.79
38466;BME280;24244;51.950;5.902;2022-10-16T12:13:31;101469.72;;;18.22;68.71
38466;BME280;24244;51.950;5.902;2022-10-16T12:18:48;101474.41;;;18.27;67.40
38466;BME280;24244;51.950;5.902;2022-10-16T12:21:16;101481.25;;;18.29;67.23
38466;BME280;24244;51.950;5.902;2022-10-16T12:23:49;101484.34;;;18.33;67.50
38466;BME280;24244;51.950;5.902;2022-10-16T12:26:24;101487.41;;;18.36;67.60
38466;BME280;24244;51.950;5.902;2022-10-16T12:28:51;101481.81;;;18.38;67.48
38466;BME280;24244;51.950;5.902;2022-10-16T12:31:18;101480.97;;;18.37;67.21
38466;BME280;24244;51.950;5.902;2022-10-16T12:33:57;101486.72;;;18.41;67.23
38466;BME280;24244;51.950;5.902;2022-10-16T12:36:29;101491.91;;;18.43;66.88
38466;BME280;24244;51.950;5.902;2022-10-16T12:38:56;101488.16;;;18.44;67.13
38466;BME280;24244;51.950;5.902;2022-10-16T12:41:25;101490.44;;;18.47;67.17
38466;BME280;24244;51.950;5.902;2022-10-16T12:43:52;101488.94;;;18.51;66.85
38466;BME280;24244;51.950;5.902;2022-10-16T12:46:37;101485.81;;;18.54;66.90
38466;BME280;24244;51.950;5.902;2022-10-16T12:49:23;101497.59;;;18.59;67.09
38466;BME280;24244;51.950;5.902;2022-10-16T12:51:55;101487.66;;;18.60;66.53
38466;BME280;24244;51.950;5.902;2022-10-16T12:54:27;101490.72;;;18.63;66.53
38466;BME280;24244;51.950;5.902;2022-10-16T12:57:07;101498.34;;;18.66;66.40
38466;BME280;24244;51.950;5.902;2022-10-16T12:59:42;101497.91;;;18.69;66.57
38466;BME280;24244;51.950;5.902;2022-10-16T13:02:39;101492.09;;;18.72;66.49
38466;BME280;24244;51.950;5.902;2022-10-16T13:05:22;101494.78;;;18.72;66.09
38466;BME280;24244;51.950;5.902;2022-10-16T13:08:00;101492.91;;;18.73;65.98
38466;BME280;24244;51.950;5.902;2022-10-16T13:10:32;101493.34;;;18.70;66.04
38466;BME280;24244;51.950;5.902;2022-10-16T13:13:14;101493.34;;;18.70;66.21
38466;BME280;24244;51.950;5.902;2022-10-16T13:15:55;101485.25;;;18.70;66.49